sensor_id;sensor_type;location;lat;lon;timestamp;pressure;altitude;pressure_sealevel;temperature;humidity
57990;BME280;58373;51.824;5.564;2023-06-10T00:01:36;101362.81;;;21.40;52.22
57990;BME280;58373;51.824;5.564;2023-06-10T00:04:02;101375.72;;;21.35;52.61
57990;BME280;58373;51.824;5.564;2023-06-10T00:06:28;101361.06;;;21.32;52.42
57990;BME280;58373;51.824;5.564;2023-06-10T00:08:53;101362.25;;;21.30;53.02
57990;BME280;58373;51.824;5.564;2023-06-10T00:11:20;101373.13;;;21.27;52.80
57990;BME280;58373;51.824;5.564;2023-06-10T00:13:46;101371.88;;;21.23;52.50
57990;BME280;58373;51.824;5.564;2023-06-10T00:16:11;101376.69;;;21.19;52.81
57990;BME280;58373;51.824;5.564;2023-06-10T00:18:36;101373.28;;;21.10;52.74
57990;BME280;58373;51.824;5.564;2023-06-10T00:21:04;101369.03;;;21.09;52.84
57990;BME280;58373;51.824;5.564;2023-06-10T00:23:30;101368.75;;;21.04;52.82
57990;BME280;58373;51.824;5.564;2023-06-10T00:25:56;101371.94;;;21.00;53.06
57990;BME280;58373;51.824;5.564;2023-06-10T00:28:21;101373.47;;;20.94;52.98
57990;BME280;58373;51.824;5.564;2023-06-10T00:30:47;101378.28;;;20.90;53.03
57990;BME280;58373;51.824;5.564;2023-06-10T00:33:12;101383.56;;;20.90;53.41
57990;BME280;58373;51.824;5.564;2023-06-10T00:35:37;101374.19;;;20.88;53.17
57990;BME280;58373;51.824;5.564;2023-06-10T00:38:02;101379.81;;;20.85;53.25
57990;BME280;58373;51.824;5.564;2023-06-10T00:40:27;101381.81;;;20.83;53.55
57990;BME280;58373;51.824;5.564;2023-06-10T00:42:53;101383.16;;;20.79;53.39
57990;BME280;58373;51.824;5.564;2023-06-10T00:45:18;101376.44;;;20.76;53.63
57990;BME280;58373;51.824;5.564;2023-06-10T00:47:43;101379.25;;;20.75;53.58
57990;BME280;58373;51.824;5.564;2023-06-10T00:50:08;101380.78;;;20.69;53.93
57990;BME280;58373;51.824;5.564;2023-06-10T00:52:34;101380.34;;;20.65;54.03
57990;BME280;58373;51.824;5.564;2023-06-10T00:55:00;101375.41;;;20.62;54.04
57990;BME280;58373;51.824;5.564;2023-06-10T00:57:25;101375.41;;;20.62;54.28
57990;BME280;58373;51.824;5.564;2023-06-10T00:59:51;101374.97;;;20.59;54.19
57990;BME280;58373;51.824;5.564;2023-06-10T01:02:16;101376.47;;;20.53;54.29
57990;BME280;58373;51.824;5.564;2023-06-10T01:04:42;101380.09;;;20.52;54.41
57990;BME280;58373;51.824;5.564;2023-06-10T01:09:38;101373.03;;;20.45;54.55
57990;BME280;58373;51.824;5.564;2023-06-10T01:12:08;101373.22;;;20.43;54.62
57990;BME280;58373;51.824;5.564;2023-06-10T01:14:38;101373.41;;;20.41;55.17
57990;BME280;58373;51.824;5.564;2023-06-10T01:17:04;101380.22;;;20.36;54.99
57990;BME280;58373;51.824;5.564;2023-06-10T01:19:29;101389.44;;;20.32;55.09
57990;BME280;58373;51.824;5.564;2023-06-10T01:21:57;101375.16;;;20.26;55.62
57990;BME280;58373;51.824;5.564;2023-06-10T01:24:25;101385.69;;;20.26;55.50
57990;BME280;58373;51.824;5.564;2023-06-10T01:26:50;101378.31;;;20.22;55.46
57990;BME280;58373;51.824;5.564;2023-06-10T01:29:20;101383.59;;;20.22;55.54
57990;BME280;58373;51.824;5.564;2023-06-10T01:31:59;101381.47;;;20.17;55.37
57990;BME280;58373;51.824;5.564;2023-06-10T01:34:26;101381.00;;;20.13;55.37
57990;BME280;58373;51.824;5.564;2023-06-10T01:36:52;101385.63;;;20.11;55.63
57990;BME280;58373;51.824;5.564;2023-06-10T01:39:21;101379.72;;;20.09;55.62
57990;BME280;58373;51.824;5.564;2023-06-10T01:41:47;101384.50;;;20.06;55.96
57990;BME280;58373;51.824;5.564;2023-06-10T01:44:17;101378.41;;;20.05;55.68
57990;BME280;58373;51.824;5.564;2023-06-10T01:46:42;101382.53;;;20.08;55.80
57990;BME280;58373;51.824;5.564;2023-06-10T01:49:07;101376.16;;;19.94;55.95
57990;BME280;58373;51.824;5.564;2023-06-10T01:51:32;101377.53;;;19.90;56.03
57990;BME280;58373;51.824;5.564;2023-06-10T01:53:58;101371.97;;;19.85;56.26
57990;BME280;58373;51.824;5.564;2023-06-10T01:56:23;101370.28;;;19.84;56.68
57990;BME280;58373;51.824;5.564;2023-06-10T01:58:48;101369.03;;;19.80;56.34
57990;BME280;58373;51.824;5.564;2023-06-10T02:01:13;101374.91;;;19.82;56.32
57990;BME280;58373;51.824;5.564;2023-06-10T02:03:39;101382.81;;;19.82;56.20
57990;BME280;58373;51.824;5.564;2023-06-10T02:06:04;101380.69;;;19.77;56.33
57990;BME280;58373;51.824;5.564;2023-06-10T02:08:29;101381.22;;;19.73;56.45
57990;BME280;58373;51.824;5.564;2023-06-10T02:10:54;101372.34;;;19.74;56.23
57990;BME280;58373;51.824;5.564;2023-06-10T02:13:20;101370.41;;;19.68;56.16
57990;BME280;58373;51.824;5.564;2023-06-10T02:15:45;101376.81;;;19.65;56.28
57990;BME280;58373;51.824;5.564;2023-06-10T02:18:10;101375.97;;;19.65;56.17
57990;BME280;58373;51.824;5.564;2023-06-10T02:20:37;101379.31;;;19.58;56.38
57990;BME280;58373;51.824;5.564;2023-06-10T02:23:02;101385.03;;;19.54;56.29
57990;BME280;58373;51.824;5.564;2023-06-10T02:25:28;101388.84;;;19.51;56.35
57990;BME280;58373;51.824;5.564;2023-06-10T02:27:53;101394.09;;;19.51;56.27
57990;BME280;58373;51.824;5.564;2023-06-10T02:30:18;101387.03;;;19.44;56.30
57990;BME280;58373;51.824;5.564;2023-06-10T02:32:44;101386.56;;;19.40;56.36
57990;BME280;58373;51.824;5.564;2023-06-10T02:35:12;101389.53;;;19.37;56.40
57990;BME280;58373;51.824;5.564;2023-06-10T02:37:38;101391.53;;;19.35;56.55
57990;BME280;58373;51.824;5.564;2023-06-10T02:40:03;101391.84;;;19.32;56.26
57990;BME280;58373;51.824;5.564;2023-06-10T02:42:29;101395.81;;;19.28;56.68
57990;BME280;58373;51.824;5.564;2023-06-10T02:44:54;101390.88;;;19.25;56.62
57990;BME280;58373;51.824;5.564;2023-06-10T02:47:19;101390.25;;;19.23;56.69
57990;BME280;58373;51.824;5.564;2023-06-10T02:49:44;101391.22;;;19.22;56.85
57990;BME280;58373;51.824;5.564;2023-06-10T02:52:10;101392.38;;;19.19;56.67
57990;BME280;58373;51.824;5.564;2023-06-10T02:54:36;101393.53;;;19.17;56.16
57990;BME280;58373;51.824;5.564;2023-06-10T02:57:01;101389.28;;;19.07;56.82
57990;BME280;58373;51.824;5.564;2023-06-10T02:59:27;101387.63;;;19.06;56.89
57990;BME280;58373;51.824;5.564;2023-06-10T03:01:53;101387.94;;;19.03;56.99
57990;BME280;58373;51.824;5.564;2023-06-10T03:04:18;101387.50;;;19.00;57.02
57990;BME280;58373;51.824;5.564;2023-06-10T03:06:45;101388.63;;;18.97;57.22
57990;BME280;58373;51.824;5.564;2023-06-10T03:09:12;101392.41;;;18.95;57.12
57990;BME280;58373;51.824;5.564;2023-06-10T03:11:37;101398.16;;;18.90;57.28
57990;BME280;58373;51.824;5.564;2023-06-10T03:14:02;101388.00;;;18.87;57.54
57990;BME280;58373;51.824;5.564;2023-06-10T03:16:27;101395.56;;;18.82;57.68
57990;BME280;58373;51.824;5.564;2023-06-10T03:18:53;101393.25;;;18.79;57.66
57990;BME280;58373;51.824;5.564;2023-06-10T03:21:18;101398.16;;;18.74;57.57
57990;BME280;58373;51.824;5.564;2023-06-10T03:23:43;101400.16;;;18.72;57.69
57990;BME280;58373;51.824;5.564;2023-06-10T03:26:08;101398.50;;;18.71;57.67
57990;BME280;58373;51.824;5.564;2023-06-10T03:28:35;101395.53;;;18.66;58.03
57990;BME280;58373;51.824;5.564;2023-06-10T03:31:00;101409.66;;;18.65;57.96
57990;BME280;58373;51.824;5.564;2023-06-10T03:33:25;101404.72;;;18.62;58.13
57990;BME280;58373;51.824;5.564;2023-06-10T03:35:51;101401.44;;;18.60;57.99
57990;BME280;58373;51.824;5.564;2023-06-10T03:38:16;101403.06;;;18.61;57.96
57990;BME280;58373;51.824;5.564;2023-06-10T03:40:41;101404.72;;;18.53;58.05
57990;BME280;58373;51.824;5.564;2023-06-10T03:43:06;101409.28;;;18.51;58.74
57990;BME280;58373;51.824;5.564;2023-06-10T03:45:32;101410.28;;;18.42;58.69
57990;BME280;58373;51.824;5.564;2023-06-10T03:47:57;101414.84;;;18.40;58.89
57990;BME280;58373;51.824;5.564;2023-06-10T03:50:22;101420.09;;;18.40;58.75
57990;BME280;58373;51.824;5.564;2023-06-10T03:52:48;101417.00;;;18.37;58.62
57990;BME280;58373;51.824;5.564;2023-06-10T03:55:13;101414.22;;;18.38;58.84
57990;BME280;58373;51.824;5.564;2023-06-10T03:57:39;101418.13;;;18.34;59.05
57990;BME280;58373;51.824;5.564;2023-06-10T04:00:04;101409.59;;;18.32;59.02
57990;BME280;58373;51.824;5.564;2023-06-10T04:02:37;101417.78;;;18.29;59.13
57990;BME280;58373;51.824;5.564;2023-06-10T04:05:02;101417.13;;;18.27;59.31
57990;BME280;58373;51.824;5.564;2023-06-10T04:07:27;101412.22;;;18.24;59.32
57990;BME280;58373;51.824;5.564;2023-06-10T04:09:53;101414.16;;;18.22;59.51
57990;BME280;58373;51.824;5.564;2023-06-10T04:12:18;101419.41;;;18.22;59.58
57990;BME280;58373;51.824;5.564;2023-06-10T04:14:44;101423.03;;;18.21;60.26
57990;BME280;58373;51.824;5.564;2023-06-10T04:17:09;101422.22;;;18.20;60.97
57990;BME280;58373;51.824;5.564;2023-06-10T04:19:35;101425.84;;;18.19;60.07
57990;BME280;58373;51.824;5.564;2023-06-10T04:22:00;101425.97;;;18.18;60.55
57990;BME280;58373;51.824;5.564;2023-06-10T04:24:25;101432.19;;;18.17;60.66
57990;BME280;58373;51.824;5.564;2023-06-10T04:26:51;101431.56;;;18.15;60.38
57990;BME280;58373;51.824;5.564;2023-06-10T04:29:19;101432.19;;;18.17;60.50
57990;BME280;58373;51.824;5.564;2023-06-10T04:31:44;101435.97;;;18.14;61.14
57990;BME280;58373;51.824;5.564;2023-06-10T04:34:11;101432.53;;;18.14;60.72
57990;BME280;58373;51.824;5.564;2023-06-10T04:36:37;101437.78;;;18.14;61.33
57990;BME280;58373;51.824;5.564;2023-06-10T04:39:02;101436.97;;;18.13;61.67
57990;BME280;58373;51.824;5.564;2023-06-10T04:41:27;101434.47;;;18.12;61.68
57990;BME280;58373;51.824;5.564;2023-06-10T04:43:53;101440.25;;;18.15;61.77
57990;BME280;58373;51.824;5.564;2023-06-10T04:46:18;101434.84;;;18.17;61.24
57990;BME280;58373;51.824;5.564;2023-06-10T04:48:44;101446.00;;;18.19;61.36
57990;BME280;58373;51.824;5.564;2023-06-10T04:51:11;101444.03;;;18.21;61.34
57990;BME280;58373;51.824;5.564;2023-06-10T04:53:36;101451.75;;;18.22;61.46
57990;BME280;58373;51.824;5.564;2023-06-10T04:56:01;101454.25;;;18.24;61.32
57990;BME280;58373;51.824;5.564;2023-06-10T04:58:27;101447.31;;;18.23;62.13
57990;BME280;58373;51.824;5.564;2023-06-10T05:00:52;101447.00;;;18.26;62.35
57990;BME280;58373;51.824;5.564;2023-06-10T05:03:17;101452.91;;;18.28;62.08
57990;BME280;58373;51.824;5.564;2023-06-10T05:05:42;101451.09;;;18.28;62.25
57990;BME280;58373;51.824;5.564;2023-06-10T05:08:08;101442.94;;;18.31;63.03
57990;BME280;58373;51.824;5.564;2023-06-10T05:10:33;101446.06;;;18.35;61.84
57990;BME280;58373;51.824;5.564;2023-06-10T05:12:59;101449.66;;;18.34;62.45
57990;BME280;58373;51.824;5.564;2023-06-10T05:15:24;101444.41;;;18.34;62.16
57990;BME280;58373;51.824;5.564;2023-06-10T05:17:49;101449.00;;;18.40;61.93
57990;BME280;58373;51.824;5.564;2023-06-10T05:20:15;101452.31;;;18.42;62.54
57990;BME280;58373;51.824;5.564;2023-06-10T05:22:40;101445.06;;;18.44;62.16
57990;BME280;58373;51.824;5.564;2023-06-10T05:25:06;101449.69;;;18.50;62.03
57990;BME280;58373;51.824;5.564;2023-06-10T05:27:31;101452.13;;;18.52;62.28
57990;BME280;58373;51.824;5.564;2023-06-10T05:29:56;101453.47;;;18.56;61.96
57990;BME280;58373;51.824;5.564;2023-06-10T05:32:22;101451.00;;;18.63;61.93
57990;BME280;58373;51.824;5.564;2023-06-10T05:34:47;101446.44;;;18.65;62.12
57990;BME280;58373;51.824;5.564;2023-06-10T05:37:12;101450.03;;;18.64;62.45
57990;BME280;58373;51.824;5.564;2023-06-10T05:39:37;101449.44;;;18.70;62.11
57990;BME280;58373;51.824;5.564;2023-06-10T05:42:03;101452.38;;;18.75;62.19
57990;BME280;58373;51.824;5.564;2023-06-10T05:44:29;101450.72;;;18.74;61.97
57990;BME280;58373;51.824;5.564;2023-06-10T05:46:54;101455.00;;;18.83;61.74
57990;BME280;58373;51.824;5.564;2023-06-10T05:49:19;101460.13;;;18.93;61.78
57990;BME280;58373;51.824;5.564;2023-06-10T05:51:44;101455.34;;;18.96;62.20
57990;BME280;58373;51.824;5.564;2023-06-10T05:54:10;101454.69;;;19.02;61.68
57990;BME280;58373;51.824;5.564;2023-06-10T05:56:35;101459.28;;;19.08;61.54
57990;BME280;58373;51.824;5.564;2023-06-10T05:59:00;101457.97;;;19.13;61.31
57990;BME280;58373;51.824;5.564;2023-06-10T06:01:25;101450.22;;;19.19;61.40
57990;BME280;58373;51.824;5.564;2023-06-10T06:03:50;101454.34;;;19.22;61.01
57990;BME280;58373;51.824;5.564;2023-06-10T06:06:16;101457.44;;;19.25;60.94
57990;BME280;58373;51.824;5.564;2023-06-10T06:08:41;101460.59;;;19.29;60.57
57990;BME280;58373;51.824;5.564;2023-06-10T06:11:06;101472.75;;;19.30;60.71
57990;BME280;58373;51.824;5.564;2023-06-10T06:13:31;101457.59;;;19.32;60.70
57990;BME280;58373;51.824;5.564;2023-06-10T06:15:56;101468.13;;;19.40;60.58
57990;BME280;58373;51.824;5.564;2023-06-10T06:18:22;101455.28;;;19.45;60.50
57990;BME280;58373;51.824;5.564;2023-06-10T06:20:47;101452.81;;;19.52;60.72
57990;BME280;58373;51.824;5.564;2023-06-10T06:23:12;101457.25;;;19.59;60.56
57990;BME280;58373;51.824;5.564;2023-06-10T06:25:38;101454.63;;;19.68;59.59
57990;BME280;58373;51.824;5.564;2023-06-10T06:28:05;101461.97;;;19.72;59.78
57990;BME280;58373;51.824;5.564;2023-06-10T06:30:30;101464.09;;;19.77;59.58
57990;BME280;58373;51.824;5.564;2023-06-10T06:32:55;101464.59;;;19.80;59.67
57990;BME280;58373;51.824;5.564;2023-06-10T06:35:21;101465.56;;;19.87;59.42
57990;BME280;58373;51.824;5.564;2023-06-10T06:37:46;101465.03;;;19.92;59.37
57990;BME280;58373;51.824;5.564;2023-06-10T06:40:11;101465.34;;;19.97;59.57
57990;BME280;58373;51.824;5.564;2023-06-10T06:42:36;101466.94;;;20.06;59.75
57990;BME280;58373;51.824;5.564;2023-06-10T06:45:02;101464.94;;;20.16;59.23
57990;BME280;58373;51.824;5.564;2023-06-10T06:47:27;101461.41;;;20.24;59.14
57990;BME280;58373;51.824;5.564;2023-06-10T06:49:52;101464.03;;;20.32;58.95
57990;BME280;58373;51.824;5.564;2023-06-10T06:52:17;101463.66;;;20.35;58.74
57990;BME280;58373;51.824;5.564;2023-06-10T06:54:43;101469.25;;;20.40;59.31
57990;BME280;58373;51.824;5.564;2023-06-10T06:57:09;101471.69;;;20.50;58.55
57990;BME280;58373;51.824;5.564;2023-06-10T06:59:34;101472.63;;;20.57;59.01
57990;BME280;58373;51.824;5.564;2023-06-10T07:01:59;101466.31;;;20.66;58.52
57990;BME280;58373;51.824;5.564;2023-06-10T07:04:24;101470.50;;;20.76;57.86
57990;BME280;58373;51.824;5.564;2023-06-10T07:06:50;101480.72;;;20.79;57.71
57990;BME280;58373;51.824;5.564;2023-06-10T07:09:15;101472.75;;;20.87;57.93
57990;BME280;58373;51.824;5.564;2023-06-10T07:11:40;101470.06;;;20.95;57.88
57990;BME280;58373;51.824;5.564;2023-06-10T07:14:06;101472.78;;;21.02;56.88
57990;BME280;58373;51.824;5.564;2023-06-10T07:16:31;101473.38;;;21.12;57.10
57990;BME280;58373;51.824;5.564;2023-06-10T07:18:56;101472.47;;;21.19;57.10
57990;BME280;58373;51.824;5.564;2023-06-10T07:21:21;101478.03;;;21.25;57.55
57990;BME280;58373;51.824;5.564;2023-06-10T07:23:48;101480.59;;;21.33;57.00
57990;BME280;58373;51.824;5.564;2023-06-10T07:26:13;101476.91;;;21.42;56.66
57990;BME280;58373;51.824;5.564;2023-06-10T07:28:42;101476.66;;;21.52;56.86
57990;BME280;58373;51.824;5.564;2023-06-10T07:31:07;101478.84;;;21.63;56.79
57990;BME280;58373;51.824;5.564;2023-06-10T07:33:33;101468.81;;;21.73;56.21
57990;BME280;58373;51.824;5.564;2023-06-10T07:35:58;101483.09;;;21.79;56.45
57990;BME280;58373;51.824;5.564;2023-06-10T07:38:24;101486.09;;;21.90;56.11
57990;BME280;58373;51.824;5.564;2023-06-10T07:40:49;101486.22;;;21.97;55.65
57990;BME280;58373;51.824;5.564;2023-06-10T07:43:14;101487.09;;;22.04;55.63
57990;BME280;58373;51.824;5.564;2023-06-10T07:45:40;101490.47;;;22.13;55.30
57990;BME280;58373;51.824;5.564;2023-06-10T07:48:06;101490.19;;;22.22;55.51
57990;BME280;58373;51.824;5.564;2023-06-10T07:50:31;101490.25;;;22.29;55.03
57990;BME280;58373;51.824;5.564;2023-06-10T07:52:56;101494.38;;;22.32;54.79
57990;BME280;58373;51.824;5.564;2023-06-10T07:55:21;101493.63;;;22.38;54.61
57990;BME280;58373;51.824;5.564;2023-06-10T07:57:46;101489.41;;;22.43;52.71
57990;BME280;58373;51.824;5.564;2023-06-10T08:00:12;101491.25;;;22.43;52.85
57990;BME280;58373;51.824;5.564;2023-06-10T08:02:37;101493.75;;;22.51;53.30
57990;BME280;58373;51.824;5.564;2023-06-10T08:05:02;101496.28;;;22.59;53.55
57990;BME280;58373;51.824;5.564;2023-06-10T08:07:28;101493.13;;;22.70;53.85
57990;BME280;58373;51.824;5.564;2023-06-10T08:09:53;101491.19;;;22.79;53.78
57990;BME280;58373;51.824;5.564;2023-06-10T08:12:18;101493.97;;;22.92;53.81
57990;BME280;58373;51.824;5.564;2023-06-10T08:14:43;101491.03;;;23.02;53.53
57990;BME280;58373;51.824;5.564;2023-06-10T08:17:09;101504.50;;;23.07;52.45
57990;BME280;58373;51.824;5.564;2023-06-10T08:19:34;101500.06;;;23.14;52.95
57990;BME280;58373;51.824;5.564;2023-06-10T08:21:59;101500.16;;;23.27;52.34
57990;BME280;58373;51.824;5.564;2023-06-10T08:24:24;101499.41;;;23.33;52.52
57990;BME280;58373;51.824;5.564;2023-06-10T08:26:50;101494.59;;;23.44;52.45
57990;BME280;58373;51.824;5.564;2023-06-10T08:29:15;101497.09;;;23.52;52.69
57990;BME280;58373;51.824;5.564;2023-06-10T08:31:43;101497.94;;;23.59;52.21
57990;BME280;58373;51.824;5.564;2023-06-10T08:34:08;101504.53;;;23.63;50.81
57990;BME280;58373;51.824;5.564;2023-06-10T08:36:34;101504.59;;;23.76;50.96
57990;BME280;58373;51.824;5.564;2023-06-10T08:39:00;101496.88;;;23.81;50.53
57990;BME280;58373;51.824;5.564;2023-06-10T08:41:25;101491.41;;;23.90;50.70
57990;BME280;58373;51.824;5.564;2023-06-10T08:44:02;101490.84;;;23.94;49.93
57990;BME280;58373;51.824;5.564;2023-06-10T08:46:29;101493.13;;;24.04;50.47
57990;BME280;58373;51.824;5.564;2023-06-10T08:48:56;101496.19;;;24.14;50.23
57990;BME280;58373;51.824;5.564;2023-06-10T08:51:25;101501.94;;;24.24;50.36
57990;BME280;58373;51.824;5.564;2023-06-10T08:53:53;101498.75;;;24.35;50.05
57990;BME280;58373;51.824;5.564;2023-06-10T08:56:22;101505.31;;;24.40;49.19
57990;BME280;58373;51.824;5.564;2023-06-10T08:58:48;101509.00;;;24.45;49.92
57990;BME280;58373;51.824;5.564;2023-06-10T09:01:14;101502.69;;;24.53;49.73
57990;BME280;58373;51.824;5.564;2023-06-10T09:03:40;101502.09;;;24.64;49.97
57990;BME280;58373;51.824;5.564;2023-06-10T09:06:06;101509.06;;;24.78;48.99
57990;BME280;58373;51.824;5.564;2023-06-10T09:08:33;101496.81;;;24.84;48.57
57990;BME280;58373;51.824;5.564;2023-06-10T09:10:59;101497.63;;;24.84;48.92
57990;BME280;58373;51.824;5.564;2023-06-10T09:13:24;101500.91;;;24.86;48.67
57990;BME280;58373;51.824;5.564;2023-06-10T09:15:49;101492.75;;;24.95;48.65
57990;BME280;58373;51.824;5.564;2023-06-10T09:18:16;101498.44;;;25.05;47.64
57990;BME280;58373;51.824;5.564;2023-06-10T09:20:41;101496.44;;;25.07;47.28
57990;BME280;58373;51.824;5.564;2023-06-10T09:23:06;101496.03;;;25.10;47.62
57990;BME280;58373;51.824;5.564;2023-06-10T09:25:38;101492.75;;;25.21;48.12
57990;BME280;58373;51.824;5.564;2023-06-10T09:28:03;101491.09;;;25.33;48.03
57990;BME280;58373;51.824;5.564;2023-06-10T09:30:32;101493.13;;;25.45;47.46
57990;BME280;58373;51.824;5.564;2023-06-10T09:33:00;101493.94;;;25.45;45.95
57990;BME280;58373;51.824;5.564;2023-06-10T09:35:26;101493.13;;;25.45;46.87
57990;BME280;58373;51.824;5.564;2023-06-10T09:37:55;101490.28;;;25.53;47.58
57990;BME280;58373;51.824;5.564;2023-06-10T09:40:20;101495.53;;;25.66;47.62
57990;BME280;58373;51.824;5.564;2023-06-10T09:42:45;101490.66;;;25.76;47.57
57990;BME280;58373;51.824;5.564;2023-06-10T09:45:14;101493.69;;;25.86;47.19
57990;BME280;58373;51.824;5.564;2023-06-10T09:47:39;101496.28;;;26.00;47.41
57990;BME280;58373;51.824;5.564;2023-06-10T09:50:04;101493.38;;;26.08;45.72
57990;BME280;58373;51.824;5.564;2023-06-10T09:52:30;101489.47;;;26.17;46.47
57990;BME280;58373;51.824;5.564;2023-06-10T09:55:01;101488.97;;;26.33;45.91
57990;BME280;58373;51.824;5.564;2023-06-10T09:57:30;101497.31;;;26.43;45.81
57990;BME280;58373;51.824;5.564;2023-06-10T09:59:55;101490.72;;;26.53;45.86
57990;BME280;58373;51.824;5.564;2023-06-10T10:02:20;101489.44;;;26.62;45.59
57990;BME280;58373;51.824;5.564;2023-06-10T10:04:46;101487.25;;;26.77;44.52
57990;BME280;58373;51.824;5.564;2023-06-10T10:07:12;101484.53;;;26.84;44.95
57990;BME280;58373;51.824;5.564;2023-06-10T10:09:37;101482.88;;;26.89;44.84
57990;BME280;58373;51.824;5.564;2023-06-10T10:12:04;101473.66;;;26.92;45.08
57990;BME280;58373;51.824;5.564;2023-06-10T10:14:31;101479.88;;;27.04;44.10
57990;BME280;58373;51.824;5.564;2023-06-10T10:16:57;101474.34;;;27.06;42.88
57990;BME280;58373;51.824;5.564;2023-06-10T10:19:28;101482.97;;;27.08;43.12
57990;BME280;58373;51.824;5.564;2023-06-10T10:21:55;101475.56;;;27.10;43.43
57990;BME280;58373;51.824;5.564;2023-06-10T10:24:23;101481.56;;;27.23;43.53
57990;BME280;58373;51.824;5.564;2023-06-10T10:26:51;101481.97;;;27.27;43.23
57990;BME280;58373;51.824;5.564;2023-06-10T10:29:26;101482.69;;;27.34;42.88
57990;BME280;58373;51.824;5.564;2023-06-10T10:31:55;101481.81;;;27.40;42.37
57990;BME280;58373;51.824;5.564;2023-06-10T10:34:23;101480.50;;;27.49;41.94
57990;BME280;58373;51.824;5.564;2023-06-10T10:36:50;101469.78;;;27.56;41.15
57990;BME280;58373;51.824;5.564;2023-06-10T10:39:15;101475.41;;;27.66;41.05
57990;BME280;58373;51.824;5.564;2023-06-10T10:41:41;101468.41;;;27.72;40.75
57990;BME280;58373;51.824;5.564;2023-06-10T10:44:07;101479.56;;;27.81;42.12
57990;BME280;58373;51.824;5.564;2023-06-10T10:46:42;101475.31;;;27.91;40.86
57990;BME280;58373;51.824;5.564;2023-06-10T10:49:08;101464.63;;;28.10;41.02
57990;BME280;58373;51.824;5.564;2023-06-10T10:51:34;101460.66;;;28.00;40.14
57990;BME280;58373;51.824;5.564;2023-06-10T10:54:10;101468.34;;;28.09;40.48
57990;BME280;58373;51.824;5.564;2023-06-10T10:56:35;101473.22;;;28.12;36.75
57990;BME280;58373;51.824;5.564;2023-06-10T10:59:03;101463.09;;;28.02;38.61
57990;BME280;58373;51.824;5.564;2023-06-10T11:01:39;101459.38;;;28.03;38.18
57990;BME280;58373;51.824;5.564;2023-06-10T11:04:06;101466.28;;;28.11;38.22
57990;BME280;58373;51.824;5.564;2023-06-10T11:06:31;101454.22;;;28.20;37.50
57990;BME280;58373;51.824;5.564;2023-06-10T11:08:57;101459.75;;;28.07;38.50
57990;BME280;58373;51.824;5.564;2023-06-10T11:11:24;101456.19;;;28.13;37.99
57990;BME280;58373;51.824;5.564;2023-06-10T11:13:58;101459.13;;;28.23;37.93
57990;BME280;58373;51.824;5.564;2023-06-10T11:16:25;101448.56;;;28.16;37.25
57990;BME280;58373;51.824;5.564;2023-06-10T11:18:53;101444.38;;;28.20;37.40
57990;BME280;58373;51.824;5.564;2023-06-10T11:21:18;101447.16;;;28.25;36.28
57990;BME280;58373;51.824;5.564;2023-06-10T11:23:44;101445.44;;;28.31;35.83
57990;BME280;58373;51.824;5.564;2023-06-10T11:28:35;101444.38;;;28.50;36.89
57990;BME280;58373;51.824;5.564;2023-06-10T11:31:01;101447.16;;;28.55;35.58
57990;BME280;58373;51.824;5.564;2023-06-10T11:33:26;101428.81;;;28.47;35.39
57990;BME280;58373;51.824;5.564;2023-06-10T11:35:51;101434.28;;;28.52;35.58
57990;BME280;58373;51.824;5.564;2023-06-10T11:38:17;101444.97;;;28.64;36.10
57990;BME280;58373;51.824;5.564;2023-06-10T11:40:49;101428.97;;;28.76;35.98
57990;BME280;58373;51.824;5.564;2023-06-10T11:43:16;101431.88;;;28.86;35.14
57990;BME280;58373;51.824;5.564;2023-06-10T11:45:41;101433.03;;;28.90;35.63
57990;BME280;58373;51.824;5.564;2023-06-10T11:48:08;101430.50;;;28.95;33.98
57990;BME280;58373;51.824;5.564;2023-06-10T11:50:34;101429.25;;;28.98;33.50
57990;BME280;58373;51.824;5.564;2023-06-10T11:52:59;101429.00;;;28.99;35.37
57990;BME280;58373;51.824;5.564;2023-06-10T11:58:11;101434.91;;;29.13;33.78
57990;BME280;58373;51.824;5.564;2023-06-10T12:00:43;101430.03;;;29.22;34.84
57990;BME280;58373;51.824;5.564;2023-06-10T12:03:08;101422.69;;;29.29;34.51
57990;BME280;58373;51.824;5.564;2023-06-10T12:05:33;101416.66;;;29.33;34.49
57990;BME280;58373;51.824;5.564;2023-06-10T12:08:11;101421.19;;;29.33;32.82
57990;BME280;58373;51.824;5.564;2023-06-10T12:10:42;101410.28;;;29.23;33.60
57990;BME280;58373;51.824;5.564;2023-06-10T12:13:08;101416.31;;;29.30;33.34
57990;BME280;58373;51.824;5.564;2023-06-10T12:15:34;101409.34;;;29.29;33.90
57990;BME280;58373;51.824;5.564;2023-06-10T12:17:59;101407.84;;;29.33;33.80
57990;BME280;58373;51.824;5.564;2023-06-10T12:20:28;101403.16;;;29.40;33.78
57990;BME280;58373;51.824;5.564;2023-06-10T12:22:54;101399.09;;;29.49;33.30
57990;BME280;58373;51.824;5.564;2023-06-10T12:25:24;101397.09;;;29.56;33.29
57990;BME280;58373;51.824;5.564;2023-06-10T12:27:51;101406.75;;;29.57;32.43
57990;BME280;58373;51.824;5.564;2023-06-10T12:30:20;101400.69;;;29.50;32.67
57990;BME280;58373;51.824;5.564;2023-06-10T12:32:46;101399.22;;;29.54;32.01
57990;BME280;58373;51.824;5.564;2023-06-10T12:35:12;101396.97;;;29.51;33.20
57990;BME280;58373;51.824;5.564;2023-06-10T12:37:38;101394.91;;;29.53;32.62
57990;BME280;58373;51.824;5.564;2023-06-10T12:40:04;101406.03;;;29.50;32.62
57990;BME280;58373;51.824;5.564;2023-06-10T12:42:34;101395.34;;;29.50;33.08
57990;BME280;58373;51.824;5.564;2023-06-10T12:45:01;101412.09;;;29.57;32.20
57990;BME280;58373;51.824;5.564;2023-06-10T12:47:36;101405.78;;;29.63;32.20
57990;BME280;58373;51.824;5.564;2023-06-10T12:50:03;101406.75;;;29.57;30.78
57990;BME280;58373;51.824;5.564;2023-06-10T12:52:29;101391.75;;;29.56;32.28